sensor_id;sensor_type;location;lat;lon;timestamp;pressure;altitude;pressure_sealevel;temperature;humidity
30463;BME280;17256;43.618;25.336;2023-04-28T00:02:28;100517.84;;;6.97;100.00
30463;BME280;17256;43.618;25.336;2023-04-28T00:05:17;100608.34;;;7.56;100.00
30463;BME280;17256;43.618;25.336;2023-04-28T00:07:46;100525.69;;;6.92;100.00
30463;BME280;17256;43.618;25.336;2023-04-28T00:10:26;100842.59;;;8.87;100.00
30463;BME280;17256;43.618;25.336;2023-04-28T00:12:53;100763.88;;;8.44;100.00
30463;BME280;17256;43.618;25.336;2023-04-28T00:15:20;100489.38;;;6.83;100.00
30463;BME280;17256;43.618;25.336;2023-04-28T00:29:40;100509.63;;;6.58;100.00
30463;BME280;17256;43.618;25.336;2023-04-28T00:32:08;100606.50;;;7.09;100.00
30463;BME280;17256;43.618;25.336;2023-04-28T00:34:37;100769.28;;;8.21;100.00
30463;BME280;17256;43.618;25.336;2023-04-28T00:37:06;100913.25;;;8.92;100.00
30463;BME280;17256;43.618;25.336;2023-04-28T00:39:34;100700.66;;;7.77;100.00
30463;BME280;17256;43.618;25.336;2023-04-28T00:42:05;100670.03;;;7.50;100.00
30463;BME280;17256;43.618;25.336;2023-04-28T00:44:35;100500.63;;;6.49;100.00
30463;BME280;17256;43.618;25.336;2023-04-28T00:47:10;100786.03;;;8.26;100.00
30463;BME280;17256;43.618;25.336;2023-04-28T00:49:42;100725.75;;;7.80;100.00
30463;BME280;17256;43.618;25.336;2023-04-28T00:52:18;100543.84;;;6.68;100.00
30463;BME280;17256;43.618;25.336;2023-04-28T00:55:13;100775.50;;;8.07;100.00
30463;BME280;17256;43.618;25.336;2023-04-28T00:58:10;100540.47;;;6.58;100.00
30463;BME280;17256;43.618;25.336;2023-04-28T01:01:03;100450.25;;;6.12;100.00
30463;BME280;17256;43.618;25.336;2023-04-28T01:03:40;100788.16;;;8.08;100.00
30463;BME280;17256;43.618;25.336;2023-04-28T01:06:15;100525.38;;;6.31;100.00
30463;BME280;17256;43.618;25.336;2023-04-28T01:08:56;100553.09;;;6.59;100.00
30463;BME280;17256;43.618;25.336;2023-04-28T01:11:27;100695.66;;;7.41;100.00
30463;BME280;17256;43.618;25.336;2023-04-28T01:14:25;100543.59;;;6.47;100.00
30463;BME280;17256;43.618;25.336;2023-04-28T01:16:51;100760.47;;;7.71;100.00
30463;BME280;17256;43.618;25.336;2023-04-28T01:19:22;100733.03;;;7.57;100.00
30463;BME280;17256;43.618;25.336;2023-04-28T01:21:53;100470.06;;;5.74;100.00
30463;BME280;17256;43.618;25.336;2023-04-28T01:24:33;100735.63;;;7.50;100.00
30463;BME280;17256;43.618;25.336;2023-04-28T01:27:04;100948.34;;;8.66;100.00
30463;BME280;17256;43.618;25.336;2023-04-28T01:29:30;101085.41;;;9.19;100.00
30463;BME280;17256;43.618;25.336;2023-04-28T01:31:56;100732.59;;;7.29;100.00
30463;BME280;17256;43.618;25.336;2023-04-28T01:34:22;100554.72;;;6.21;100.00
30463;BME280;17256;43.618;25.336;2023-04-28T01:36:50;100832.16;;;7.90;100.00
30463;BME280;17256;43.618;25.336;2023-04-28T01:39:16;100961.63;;;8.46;100.00
30463;BME280;17256;43.618;25.336;2023-04-28T01:41:42;100953.19;;;8.55;100.00
30463;BME280;17256;43.618;25.336;2023-04-28T01:44:08;101041.69;;;8.87;100.00
30463;BME280;17256;43.618;25.336;2023-04-28T01:46:34;100625.25;;;6.57;100.00
30463;BME280;17256;43.618;25.336;2023-04-28T01:49:01;100763.66;;;7.36;100.00
30463;BME280;17256;43.618;25.336;2023-04-28T01:51:29;100771.03;;;7.27;100.00
30463;BME280;17256;43.618;25.336;2023-04-28T01:53:56;100761.28;;;7.17;100.00
30463;BME280;17256;43.618;25.336;2023-04-28T01:56:23;100623.91;;;6.36;100.00
30463;BME280;17256;43.618;25.336;2023-04-28T01:58:51;100661.91;;;6.70;100.00
30463;BME280;17256;43.618;25.336;2023-04-28T02:04:06;100860.78;;;7.71;100.00
30463;BME280;17256;43.618;25.336;2023-04-28T02:06:34;100592.03;;;6.12;100.00
30463;BME280;17256;43.618;25.336;2023-04-28T02:09:00;100612.31;;;6.18;100.00
30463;BME280;17256;43.618;25.336;2023-04-28T02:11:26;100537.50;;;5.72;100.00
30463;BME280;17256;43.618;25.336;2023-04-28T02:13:55;100786.72;;;7.17;100.00
30463;BME280;17256;43.618;25.336;2023-04-28T02:16:21;100718.88;;;6.73;100.00
30463;BME280;17256;43.618;25.336;2023-04-28T02:18:49;100665.84;;;6.27;100.00
30463;BME280;17256;43.618;25.336;2023-04-28T02:21:15;100725.00;;;6.59;100.00
30463;BME280;17256;43.618;25.336;2023-04-28T02:23:43;100818.16;;;7.21;100.00
30463;BME280;17256;43.618;25.336;2023-04-28T02:26:10;100825.16;;;7.24;100.00
30463;BME280;17256;43.618;25.336;2023-04-28T02:29:13;101064.19;;;8.74;100.00
30463;BME280;17256;43.618;25.336;2023-04-28T04:05:19;100714.97;;;5.77;100.00
30463;BME280;17256;43.618;25.336;2023-04-28T04:07:45;101181.09;;;8.57;100.00
30463;BME280;17256;43.618;25.336;2023-04-28T04:10:11;100933.91;;;7.20;100.00
30463;BME280;17256;43.618;25.336;2023-04-28T04:12:40;100915.63;;;7.04;100.00
30463;BME280;17256;43.618;25.336;2023-04-28T04:15:07;100745.06;;;6.17;100.00
30463;BME280;17256;43.618;25.336;2023-04-28T04:17:33;101193.75;;;8.75;100.00
30463;BME280;17256;43.618;25.336;2023-04-28T04:19:59;100932.22;;;7.19;100.00
30463;BME280;17256;43.618;25.336;2023-04-28T04:22:25;100683.56;;;5.65;100.00
30463;BME280;17256;43.618;25.336;2023-04-28T04:24:51;100933.41;;;7.25;100.00
30463;BME280;17256;43.618;25.336;2023-04-28T04:27:17;100925.69;;;7.12;100.00
30463;BME280;17256;43.618;25.336;2023-04-28T04:29:43;101005.84;;;7.69;100.00
30463;BME280;17256;43.618;25.336;2023-04-28T04:32:11;101229.66;;;8.96;100.00
30463;BME280;17256;43.618;25.336;2023-04-28T04:34:39;100972.84;;;7.55;100.00
30463;BME280;17256;43.618;25.336;2023-04-28T04:37:04;100978.31;;;7.79;100.00
30463;BME280;17256;43.618;25.336;2023-04-28T04:39:31;100921.59;;;7.40;100.00
30463;BME280;17256;43.618;25.336;2023-04-28T04:41:57;100822.44;;;6.75;100.00
30463;BME280;17256;43.618;25.336;2023-04-28T04:47:33;100958.16;;;7.56;100.00
30463;BME280;17256;43.618;25.336;2023-04-28T04:49:59;101025.66;;;7.96;100.00
30463;BME280;17256;43.618;25.336;2023-04-28T04:52:25;100851.44;;;6.84;100.00
30463;BME280;17256;43.618;25.336;2023-04-28T04:54:51;101189.94;;;9.00;100.00
30463;BME280;17256;43.618;25.336;2023-04-28T04:57:18;100901.47;;;7.25;100.00
30463;BME280;17256;43.618;25.336;2023-04-28T05:00:08;100880.78;;;7.15;100.00
30463;BME280;17256;43.618;25.336;2023-04-28T05:02:35;101076.56;;;8.29;100.00
30463;BME280;17256;43.618;25.336;2023-04-28T05:05:04;101035.53;;;8.13;100.00
30463;BME280;17256;43.618;25.336;2023-04-28T05:07:30;101126.84;;;8.61;99.28
30463;BME280;17256;43.618;25.336;2023-04-28T05:09:55;101041.50;;;8.17;98.18
30463;BME280;17256;43.618;25.336;2023-04-28T05:12:21;101241.56;;;9.44;97.37
30463;BME280;17256;43.618;25.336;2023-04-28T05:14:47;100913.06;;;7.60;97.00
30463;BME280;17256;43.618;25.336;2023-04-28T05:17:14;100956.44;;;7.79;95.06
30463;BME280;17256;43.618;25.336;2023-04-28T05:19:41;101016.56;;;8.20;94.34
30463;BME280;17256;43.618;25.336;2023-04-28T05:22:06;100950.59;;;7.98;95.27
30463;BME280;17256;43.618;25.336;2023-04-28T05:24:34;101112.69;;;9.05;93.46
30463;BME280;17256;43.618;25.336;2023-04-28T05:27:01;101254.69;;;9.96;92.28
30463;BME280;17256;43.618;25.336;2023-04-28T05:29:27;101012.47;;;8.79;89.78
30463;BME280;17256;43.618;25.336;2023-04-28T05:31:52;101251.91;;;10.35;90.53
30463;BME280;17256;43.618;25.336;2023-04-28T05:34:20;101028.53;;;9.21;89.23
30463;BME280;17256;43.618;25.336;2023-04-28T05:36:46;101020.72;;;9.33;87.34
30463;BME280;17256;43.618;25.336;2023-04-28T05:39:12;101066.16;;;9.59;86.07
30463;BME280;17256;43.618;25.336;2023-04-28T05:41:39;101156.94;;;10.40;86.05
30463;BME280;17256;43.618;25.336;2023-04-28T05:44:05;101270.63;;;11.15;85.82
30463;BME280;17256;43.618;25.336;2023-04-28T05:46:31;101084.56;;;10.18;83.50
30463;BME280;17256;43.618;25.336;2023-04-28T05:48:58;101176.22;;;10.93;81.00
30463;BME280;17256;43.618;25.336;2023-04-28T05:51:25;101034.34;;;10.10;80.76
30463;BME280;17256;43.618;25.336;2023-04-28T05:54:03;101013.63;;;9.93;80.30
30463;BME280;17256;43.618;25.336;2023-04-28T05:56:30;101051.44;;;10.20;78.50
30463;BME280;17256;43.618;25.336;2023-04-28T05:58:56;101050.53;;;10.28;78.58
30463;BME280;17256;43.618;25.336;2023-04-28T06:01:24;101096.09;;;10.52;78.26
30463;BME280;17256;43.618;25.336;2023-04-28T06:03:49;101069.88;;;10.64;76.00
30463;BME280;17256;43.618;25.336;2023-04-28T06:06:15;101149.91;;;11.64;73.61
30463;BME280;17256;43.618;25.336;2023-04-28T06:08:42;101116.06;;;12.21;70.69
30463;BME280;17256;43.618;25.336;2023-04-28T06:11:07;101048.53;;;11.82;65.71
30463;BME280;17256;43.618;25.336;2023-04-28T06:13:33;101031.69;;;11.70;66.80
30463;BME280;17256;43.618;25.336;2023-04-28T06:15:58;101143.19;;;12.45;65.76
30463;BME280;17256;43.618;25.336;2023-04-28T06:18:24;101010.75;;;11.91;63.98
30463;BME280;17256;43.618;25.336;2023-04-28T06:20:51;101094.91;;;12.49;65.44
30463;BME280;17256;43.618;25.336;2023-04-28T06:23:16;101102.28;;;12.70;64.45
30463;BME280;17256;43.618;25.336;2023-04-28T06:25:45;101163.78;;;13.05;62.49
30463;BME280;17256;43.618;25.336;2023-04-28T06:28:10;101208.22;;;13.45;62.61
30463;BME280;17256;43.618;25.336;2023-04-28T06:30:37;101164.88;;;13.11;63.56
30463;BME280;17256;43.618;25.336;2023-04-28T06:33:13;101208.44;;;13.50;61.85
30463;BME280;17256;43.618;25.336;2023-04-28T06:50:23;101038.72;;;12.44;61.90
30463;BME280;17256;43.618;25.336;2023-04-28T06:52:49;100882.38;;;11.83;61.08
30463;BME280;17256;43.618;25.336;2023-04-28T06:55:16;101096.22;;;13.64;58.30
30463;BME280;17256;43.618;25.336;2023-04-28T06:57:43;100856.41;;;12.27;58.06
30463;BME280;17256;43.618;25.336;2023-04-28T07:00:12;101056.03;;;13.54;57.32
30463;BME280;17256;43.618;25.336;2023-04-28T07:02:38;101078.09;;;13.48;56.32
30463;BME280;17256;43.618;25.336;2023-04-28T07:05:07;101174.91;;;14.07;57.47
30463;BME280;17256;43.618;25.336;2023-04-28T07:07:35;101105.34;;;13.71;57.72
30463;BME280;17256;43.618;25.336;2023-04-28T07:10:05;100879.06;;;12.83;51.60
30463;BME280;17256;43.618;25.336;2023-04-28T07:12:54;101169.66;;;14.39;50.86
30463;BME280;17256;43.618;25.336;2023-04-28T07:15:25;100947.34;;;13.42;51.80
30463;BME280;17256;43.618;25.336;2023-04-28T07:17:54;101077.38;;;13.94;50.49
30463;BME280;17256;43.618;25.336;2023-04-28T07:20:34;100905.44;;;12.99;46.65
30463;BME280;17256;43.618;25.336;2023-04-28T07:23:20;101159.94;;;14.50;48.01
30463;BME280;17256;43.618;25.336;2023-04-28T07:26:02;100900.47;;;12.68;48.28
30463;BME280;17256;43.618;25.336;2023-04-28T07:28:44;101143.03;;;14.05;49.35
30463;BME280;17256;43.618;25.336;2023-04-28T07:31:23;101057.56;;;13.64;48.33
30463;BME280;17256;43.618;25.336;2023-04-28T07:34:05;101331.44;;;15.68;48.71
30463;BME280;17256;43.618;25.336;2023-04-28T07:36:35;100945.88;;;13.46;49.07
30463;BME280;17256;43.618;25.336;2023-04-28T07:39:23;100951.38;;;13.40;47.70
30463;BME280;17256;43.618;25.336;2023-04-28T07:41:54;100979.63;;;13.55;49.87
30463;BME280;17256;43.618;25.336;2023-04-28T07:44:28;100999.84;;;14.22;49.57
30463;BME280;17256;43.618;25.336;2023-04-28T07:46:54;101088.81;;;15.16;47.08
30463;BME280;17256;43.618;25.336;2023-04-28T07:49:28;101021.44;;;14.91;46.39
30463;BME280;17256;43.618;25.336;2023-04-28T07:51:54;100875.41;;;13.90;46.82
30463;BME280;17256;43.618;25.336;2023-04-28T07:54:21;100867.53;;;13.80;46.78
30463;BME280;17256;43.618;25.336;2023-04-28T07:56:47;101186.63;;;15.48;48.10
30463;BME280;17256;43.618;25.336;2023-04-28T07:59:13;101137.50;;;15.37;48.88
30463;BME280;17256;43.618;25.336;2023-04-28T08:01:40;101157.84;;;15.69;47.83
30463;BME280;17256;43.618;25.336;2023-04-28T08:04:07;101246.53;;;16.45;48.29
30463;BME280;17256;43.618;25.336;2023-04-28T08:06:33;101333.09;;;16.47;46.86
30463;BME280;17256;43.618;25.336;2023-04-28T08:09:01;100896.41;;;13.51;47.77
30463;BME280;17256;43.618;25.336;2023-04-28T08:11:27;100949.50;;;14.00;47.56
30463;BME280;17256;43.618;25.336;2023-04-28T08:13:59;100898.34;;;13.44;47.57
30463;BME280;17256;43.618;25.336;2023-04-28T08:16:32;100895.72;;;13.16;46.49
30463;BME280;17256;43.618;25.336;2023-04-28T08:19:09;100919.63;;;12.89;43.86
30463;BME280;17256;43.618;25.336;2023-04-28T08:21:37;100936.97;;;13.51;43.37
30463;BME280;17256;43.618;25.336;2023-04-28T08:24:07;101304.22;;;16.23;43.23
30463;BME280;17256;43.618;25.336;2023-04-28T08:26:40;101048.50;;;14.69;45.09
30463;BME280;17256;43.618;25.336;2023-04-28T08:29:08;101095.31;;;15.42;44.94
30463;BME280;17256;43.618;25.336;2023-04-28T08:31:35;101189.56;;;15.53;46.03
30463;BME280;17256;43.618;25.336;2023-04-28T08:34:11;100971.56;;;14.39;45.51
30463;BME280;17256;43.618;25.336;2023-04-28T08:37:10;100889.41;;;13.95;42.38
30463;BME280;17256;43.618;25.336;2023-04-28T08:40:03;100875.59;;;13.95;44.49
30463;BME280;17256;43.618;25.336;2023-04-28T08:42:45;100901.41;;;14.34;44.46
30463;BME280;17256;43.618;25.336;2023-04-28T08:45:40;101330.69;;;16.06;44.21
30463;BME280;17256;43.618;25.336;2023-04-28T08:52:56;101207.22;;;16.23;44.92
30463;BME280;17256;43.618;25.336;2023-04-28T08:55:37;101164.59;;;16.49;43.94
30463;BME280;17256;43.618;25.336;2023-04-28T08:58:08;101290.06;;;17.08;43.72
30463;BME280;17256;43.618;25.336;2023-04-28T09:00:36;101288.66;;;16.99;44.98
30463;BME280;17256;43.618;25.336;2023-04-28T09:03:28;101245.53;;;16.71;43.09
30463;BME280;17256;43.618;25.336;2023-04-28T09:06:05;101295.75;;;17.44;43.57
30463;BME280;17256;43.618;25.336;2023-04-28T09:12:44;101082.91;;;15.51;42.64
30463;BME280;17256;43.618;25.336;2023-04-28T09:18:40;100856.22;;;14.08;43.34
30463;BME280;17256;43.618;25.336;2023-04-28T09:22:14;101185.84;;;15.86;42.40
30463;BME280;17256;43.618;25.336;2023-04-28T09:24:32;100978.28;;;14.76;42.84
30463;BME280;17256;43.618;25.336;2023-04-28T09:27:11;101192.56;;;16.10;41.98
30463;BME280;17256;43.618;25.336;2023-04-28T09:29:55;101010.88;;;15.57;41.39
30463;BME280;17256;43.618;25.336;2023-04-28T09:32:25;101192.38;;;16.43;41.28
30463;BME280;17256;43.618;25.336;2023-04-28T09:35:42;100885.22;;;15.02;41.27
30463;BME280;17256;43.618;25.336;2023-04-28T09:38:12;101067.41;;;16.19;41.46
30463;BME280;17256;43.618;25.336;2023-04-28T09:43:33;101003.97;;;16.05;43.04
30463;BME280;17256;43.618;25.336;2023-04-28T09:46:02;101012.44;;;16.16;41.42
30463;BME280;17256;43.618;25.336;2023-04-28T09:48:36;100845.81;;;15.13;42.22
30463;BME280;17256;43.618;25.336;2023-04-28T09:51:07;101206.19;;;17.49;44.35
30463;BME280;17256;43.618;25.336;2023-04-28T09:53:35;100970.56;;;15.75;41.90
30463;BME280;17256;43.618;25.336;2023-04-28T09:56:02;100949.19;;;15.50;42.90
30463;BME280;17256;43.618;25.336;2023-04-28T09:58:30;101104.84;;;16.53;43.39
30463;BME280;17256;43.618;25.336;2023-04-28T10:00:58;101084.91;;;15.82;41.98
30463;BME280;17256;43.618;25.336;2023-04-28T10:03:27;101073.56;;;16.21;44.27
30463;BME280;17256;43.618;25.336;2023-04-28T10:05:53;101255.16;;;17.68;42.64
30463;BME280;17256;43.618;25.336;2023-04-28T10:08:20;100991.50;;;15.95;41.72
30463;BME280;17256;43.618;25.336;2023-04-28T10:10:48;101074.75;;;16.32;40.65
30463;BME280;17256;43.618;25.336;2023-04-28T10:13:16;101130.56;;;16.92;42.92
30463;BME280;17256;43.618;25.336;2023-04-28T10:15:42;100921.47;;;15.88;42.17
30463;BME280;17256;43.618;25.336;2023-04-28T10:18:09;100796.50;;;15.28;41.53
30463;BME280;17256;43.618;25.336;2023-04-28T10:20:37;101044.84;;;16.41;42.19
30463;BME280;17256;43.618;25.336;2023-04-28T10:26:10;100993.22;;;15.20;42.70
30463;BME280;17256;43.618;25.336;2023-04-28T10:28:36;100940.50;;;14.64;44.06
30463;BME280;17256;43.618;25.336;2023-04-28T10:31:10;101007.56;;;15.87;44.21
30463;BME280;17256;43.618;25.336;2023-04-28T10:33:37;101061.53;;;16.03;42.34
30463;BME280;17256;43.618;25.336;2023-04-28T10:36:04;100951.41;;;15.35;43.09
30463;BME280;17256;43.618;25.336;2023-04-28T10:38:30;101142.63;;;16.23;41.65
30463;BME280;17256;43.618;25.336;2023-04-28T10:40:56;100800.44;;;13.80;43.16
30463;BME280;17256;43.618;25.336;2023-04-28T10:43:38;101006.72;;;15.80;43.70
30463;BME280;17256;43.618;25.336;2023-04-28T10:46:05;101151.03;;;16.35;42.55
30463;BME280;17256;43.618;25.336;2023-04-28T10:56:25;100725.38;;;13.38;45.41
30463;BME280;17256;43.618;25.336;2023-04-28T10:58:56;101177.06;;;16.40;44.53
30463;BME280;17256;43.618;25.336;2023-04-28T11:01:29;101189.94;;;16.53;44.58
30463;BME280;17256;43.618;25.336;2023-04-28T11:03:57;100843.94;;;13.98;43.40
30463;BME280;17256;43.618;25.336;2023-04-28T11:06:28;100950.50;;;14.65;45.18
30463;BME280;17256;43.618;25.336;2023-04-28T11:08:59;101085.38;;;15.72;44.61
30463;BME280;17256;43.618;25.336;2023-04-28T11:11:31;100808.00;;;14.18;44.43
30463;BME280;17256;43.618;25.336;2023-04-28T11:16:56;101023.38;;;16.05;45.32
30463;BME280;17256;43.618;25.336;2023-04-28T11:22:05;101040.53;;;16.70;43.10
30463;BME280;17256;43.618;25.336;2023-04-28T11:24:36;100971.03;;;15.96;44.05
30463;BME280;17256;43.618;25.336;2023-04-28T11:27:02;100800.25;;;15.16;43.90
30463;BME280;17256;43.618;25.336;2023-04-28T11:29:36;100937.00;;;15.58;44.29
30463;BME280;17256;43.618;25.336;2023-04-28T11:32:06;100920.13;;;15.34;44.11
30463;BME280;17256;43.618;25.336;2023-04-28T11:34:33;100964.06;;;15.56;44.64
30463;BME280;17256;43.618;25.336;2023-04-28T11:37:00;100808.41;;;15.04;43.69
30463;BME280;17256;43.618;25.336;2023-04-28T11:39:29;100917.28;;;15.48;44.46
30463;BME280;17256;43.618;25.336;2023-04-28T11:41:56;101172.31;;;17.22;43.47
30463;BME280;17256;43.618;25.336;2023-04-28T11:44:27;101115.78;;;16.98;43.39
30463;BME280;17256;43.618;25.336;2023-04-28T11:47:11;101166.41;;;17.37;44.19
30463;BME280;17256;43.618;25.336;2023-04-28T11:49:45;101016.66;;;16.87;44.00
30463;BME280;17256;43.618;25.336;2023-04-28T11:52:13;101062.47;;;17.63;43.81
30463;BME280;17256;43.618;25.336;2023-04-28T11:54:39;100779.88;;;15.78;42.42
30463;BME280;17256;43.618;25.336;2023-04-28T11:57:20;100791.75;;;16.22;41.50
30463;BME280;17256;43.618;25.336;2023-04-28T11:59:49;100987.66;;;17.19;42.95
30463;BME280;17256;43.618;25.336;2023-04-28T12:02:23;101027.97;;;17.22;43.22
30463;BME280;17256;43.618;25.336;2023-04-28T12:04:52;100939.63;;;16.71;42.12
30463;BME280;17256;43.618;25.336;2023-04-28T12:07:19;100949.34;;;16.55;43.01
30463;BME280;17256;43.618;25.336;2023-04-28T12:10:13;101135.38;;;17.76;42.65
30463;BME280;17256;43.618;25.336;2023-04-28T12:12:43;101139.22;;;17.57;44.54
30463;BME280;17256;43.618;25.336;2023-04-28T12:15:10;100899.97;;;15.84;44.44
30463;BME280;17256;43.618;25.336;2023-04-28T12:17:38;100883.47;;;15.95;44.55
30463;BME280;17256;43.618;25.336;2023-04-28T12:20:12;100935.66;;;16.42;43.71
30463;BME280;17256;43.618;25.336;2023-04-28T12:22:57;100825.50;;;15.76;43.65
30463;BME280;17256;43.618;25.336;2023-04-28T12:25:24;100933.16;;;16.34;43.18
30463;BME280;17256;43.618;25.336;2023-04-28T12:28:03;100711.06;;;14.64;45.96
30463;BME280;17256;43.618;25.336;2023-04-28T12:30:35;100911.41;;;15.94;44.67
30463;BME280;17256;43.618;25.336;2023-04-28T12:33:04;101010.94;;;17.00;43.69
30463;BME280;17256;43.618;25.336;2023-04-28T12:35:30;100911.56;;;15.99;43.71
30463;BME280;17256;43.618;25.336;2023-04-28T12:37:56;100918.34;;;15.78;44.30
30463;BME280;17256;43.618;25.336;2023-04-28T12:40:22;100930.00;;;16.12;43.90
30463;BME280;17256;43.618;25.336;2023-04-28T12:42:49;101068.53;;;16.61;44.80
30463;BME280;17256;43.618;25.336;2023-04-28T12:45:15;101123.78;;;16.88;45.17
30463;BME280;17256;43.618;25.336;2023-04-28T12:47:41;100912.31;;;15.88;45.78
30463;BME280;17256;43.618;25.336;2023-04-28T12:50:07;100935.97;;;16.09;45.44
30463;BME280;17256;43.618;25.336;2023-04-28T12:52:33;100942.09;;;16.36;45.43
30463;BME280;17256;43.618;25.336;2023-04-28T12:55:00;100896.31;;;16.08;45.01
30463;BME280;17256;43.618;25.336;2023-04-28T12:57:26;100904.16;;;16.36;45.09
30463;BME280;17256;43.618;25.336;2023-04-28T12:59:53;100905.84;;;16.74;44.02
30463;BME280;17256;43.618;25.336;2023-04-28T13:02:20;100938.16;;;16.86;43.59
30463;BME280;17256;43.618;25.336;2023-04-28T13:04:46;100988.97;;;17.47;43.01
30463;BME280;17256;43.618;25.336;2023-04-28T13:07:12;101084.19;;;18.14;43.84
30463;BME280;17256;43.618;25.336;2023-04-28T13:09:39;100868.50;;;17.06;43.95
30463;BME280;17256;43.618;25.336;2023-04-28T13:12:06;100957.41;;;18.13;42.12
30463;BME280;17256;43.618;25.336;2023-04-28T13:14:47;100850.41;;;16.74;42.37
30463;BME280;17256;43.618;25.336;2023-04-28T13:18:48;101082.03;;;18.28;43.49
30463;BME280;17256;43.618;25.336;2023-04-28T13:21:24;100850.31;;;17.10;43.96
30463;BME280;17256;43.618;25.336;2023-04-28T13:23:57;100851.75;;;16.83;43.44
30463;BME280;17256;43.618;25.336;2023-04-28T13:26:25;100888.16;;;17.05;43.88
30463;BME280;17256;43.618;25.336;2023-04-28T13:28:52;101070.53;;;18.24;43.50
30463;BME280;17256;43.618;25.336;2023-04-28T13:31:18;100895.59;;;17.22;43.44
30463;BME280;17256;43.618;25.336;2023-04-28T13:33:46;100820.53;;;16.03;44.86
30463;BME280;17256;43.618;25.336;2023-04-28T13:39:34;101067.97;;;17.69;44.92
30463;BME280;17256;43.618;25.336;2023-04-28T13:47:04;100803.13;;;15.77;46.30
30463;BME280;17256;43.618;25.336;2023-04-28T13:49:33;100829.00;;;15.39;46.38
30463;BME280;17256;43.618;25.336;2023-04-28T13:51:59;100640.81;;;14.15;47.85
30463;BME280;17256;43.618;25.336;2023-04-28T13:54:24;100788.69;;;14.94;48.27
30463;BME280;17256;43.618;25.336;2023-04-28T13:56:50;100907.84;;;15.62;47.33
30463;BME280;17256;43.618;25.336;2023-04-28T13:59:16;100866.13;;;15.25;48.31
30463;BME280;17256;43.618;25.336;2023-04-28T14:01:42;100579.63;;;14.11;47.66
30463;BME280;17256;43.618;25.336;2023-04-28T14:04:08;100853.31;;;16.06;46.29
30463;BME280;17256;43.618;25.336;2023-04-28T14:06:33;100877.50;;;16.17;45.26
30463;BME280;17256;43.618;25.336;2023-04-28T14:08:59;100800.69;;;15.87;46.64
30463;BME280;17256;43.618;25.336;2023-04-28T14:11:25;100827.72;;;15.67;46.22
30463;BME280;17256;43.618;25.336;2023-04-28T14:13:51;100889.94;;;15.58;47.61
30463;BME280;17256;43.618;25.336;2023-04-28T14:16:17;100820.63;;;15.46;48.72
30463;BME280;17256;43.618;25.336;2023-04-28T14:18:43;100808.59;;;15.34;46.90
30463;BME280;17256;43.618;25.336;2023-04-28T14:21:08;100620.56;;;14.21;46.35
30463;BME280;17256;43.618;25.336;2023-04-28T14:23:34;100777.44;;;15.20;46.83
30463;BME280;17256;43.618;25.336;2023-04-28T14:26:00;100726.84;;;14.88;46.40
30463;BME280;17256;43.618;25.336;2023-04-28T14:28:58;101076.31;;;17.14;46.65
30463;BME280;17256;43.618;25.336;2023-04-28T14:37:05;101032.09;;;17.49;47.34
30463;BME280;17256;43.618;25.336;2023-04-28T14:44:33;101027.72;;;17.42;46.02
30463;BME280;17256;43.618;25.336;2023-04-28T14:52:08;100635.16;;;15.09;45.69
30463;BME280;17256;43.618;25.336;2023-04-28T15:34:36;100917.22;;;16.29;47.19
30463;BME280;17256;43.618;25.336;2023-04-28T15:39:49;100754.09;;;15.34;46.72
30463;BME280;17256;43.618;25.336;2023-04-28T15:42:17;100649.50;;;15.00;46.55
30463;BME280;17256;43.618;25.336;2023-04-28T15:44:52;100809.06;;;15.99;46.40
30463;BME280;17256;43.618;25.336;2023-04-28T15:47:18;100745.56;;;15.61;47.36
30463;BME280;17256;43.618;25.336;2023-04-28T15:49:49;100846.69;;;16.07;46.43
30463;BME280;17256;43.618;25.336;2023-04-28T15:52:17;100716.44;;;15.08;46.83
30463;BME280;17256;43.618;25.336;2023-04-28T15:54:44;100670.56;;;14.76;48.26
30463;BME280;17256;43.618;25.336;2023-04-28T15:57:11;100779.97;;;15.22;47.89
30463;BME280;17256;43.618;25.336;2023-04-28T15:59:38;100774.22;;;15.23;47.74
30463;BME280;17256;43.618;25.336;2023-04-28T16:02:07;100609.28;;;13.91;47.16
30463;BME280;17256;43.618;25.336;2023-04-28T16:04:34;100711.09;;;14.57;48.16
30463;BME280;17256;43.618;25.336;2023-04-28T16:07:03;100821.66;;;14.95;47.94
30463;BME280;17256;43.618;25.336;2023-04-28T16:09:29;100809.19;;;14.80;48.66
30463;BME280;17256;43.618;25.336;2023-04-28T16:11:56;100792.59;;;14.80;49.60
30463;BME280;17256;43.618;25.336;2023-04-28T16:14:29;100625.41;;;13.88;49.83
30463;BME280;17256;43.618;25.336;2023-04-28T16:18:05;100847.59;;;15.26;49.96
30463;BME280;17256;43.618;25.336;2023-04-28T16:20:36;100781.03;;;14.96;49.49
30463;BME280;17256;43.618;25.336;2023-04-28T16:23:05;100815.34;;;14.88;48.38
30463;BME280;17256;43.618;25.336;2023-04-28T16:25:32;100479.22;;;12.91;48.42
30463;BME280;17256;43.618;25.336;2023-04-28T16:27:58;100549.69;;;13.32;48.83
30463;BME280;17256;43.618;25.336;2023-04-28T16:30:26;100663.19;;;14.00;50.27
30463;BME280;17256;43.618;25.336;2023-04-28T16:32:54;100729.69;;;14.43;50.50
30463;BME280;17256;43.618;25.336;2023-04-28T16:35:24;100607.09;;;13.62;49.42
30463;BME280;17256;43.618;25.336;2023-04-28T16:37:50;100591.06;;;13.32;49.40
30463;BME280;17256;43.618;25.336;2023-04-28T16:40:18;100728.03;;;14.29;51.06
30463;BME280;17256;43.618;25.336;2023-04-28T16:42:46;100836.34;;;14.51;50.02
30463;BME280;17256;43.618;25.336;2023-04-28T16:48:44;100968.63;;;15.44;51.75